createdAt,value
2022-09-28T00:00:02.302Z,67.22
2022-09-28T00:02:28.939Z,67.16
2022-09-28T00:04:55.550Z,67.08
2022-09-28T00:07:22.145Z,66.86
2022-09-28T00:09:48.848Z,67.60
2022-09-28T00:12:40.378Z,67.12
2022-09-28T00:15:07.600Z,67.17
2022-09-28T00:17:34.367Z,67.10
2022-09-28T00:20:01.217Z,66.88
2022-09-28T00:22:28.412Z,67.18
2022-09-28T00:24:54.985Z,67.40
2022-09-28T00:27:53.007Z,67.35
2022-09-28T00:31:29.408Z,67.56
2022-09-28T00:34:00.241Z,67.55
2022-09-28T00:36:28.737Z,67.56
2022-09-28T00:38:59.275Z,67.75
2022-09-28T00:41:27.900Z,67.74
2022-09-28T00:44:26.443Z,68.39
2022-09-28T00:47:31.264Z,68.11
2022-09-28T00:50:12.685Z,67.64
2022-09-28T00:52:42.916Z,68.13
2022-09-28T00:55:15.212Z,67.89
2022-09-28T00:57:47.202Z,68.04
2022-09-28T01:00:14.311Z,68.17
2022-09-28T01:06:43.796Z,68.82
2022-09-28T01:09:13.338Z,69.04
2022-09-28T01:11:42.345Z,68.67
2022-09-28T01:14:15.596Z,69.02
2022-09-28T01:17:04.177Z,68.68
2022-09-28T01:19:33.572Z,68.67
2022-09-28T01:22:43.937Z,68.49
2022-09-28T01:25:37.190Z,68.26
2022-09-28T01:28:12.290Z,68.52
2022-09-28T01:31:03.331Z,68.45
2022-09-28T01:34:18.078Z,68.64
2022-09-28T01:37:07.669Z,68.58
2022-09-28T01:42:31.584Z,68.79
2022-09-28T01:45:06.194Z,68.46
2022-09-28T01:47:37.868Z,68.60
2022-09-28T01:50:13.388Z,68.57
2022-09-28T01:52:44.026Z,68.41
2022-09-28T01:55:46.506Z,68.83
2022-09-28T01:58:19.212Z,68.99
2022-09-28T02:00:52.629Z,69.16
2022-09-28T02:03:25.771Z,69.17
2022-09-28T02:05:58.691Z,68.46
2022-09-28T02:08:36.110Z,68.16
2022-09-28T02:11:27.512Z,67.86
2022-09-28T02:17:23.206Z,68.07
2022-09-28T02:19:50.260Z,67.96
2022-09-28T02:22:25.604Z,67.68
2022-09-28T02:25:10.525Z,67.81
2022-09-28T02:27:50.149Z,67.58
2022-09-28T02:30:39.348Z,67.62
2022-09-28T02:33:17.394Z,67.46
2022-09-28T02:35:44.362Z,67.45
2022-09-28T02:38:12.437Z,67.57
2022-09-28T02:40:40.044Z,67.54
2022-09-28T02:43:14.563Z,67.80
2022-09-28T02:46:03.645Z,67.75
2022-09-28T02:52:04.944Z,67.71
2022-09-28T02:54:37.795Z,68.65
2022-09-28T02:57:40.255Z,68.19
2022-09-28T03:00:36.438Z,68.35
2022-09-28T03:03:13.012Z,68.42
2022-09-28T03:05:58.188Z,68.11
2022-09-28T03:08:37.029Z,68.02
2022-09-28T03:11:25.926Z,68.03
2022-09-28T03:13:53.373Z,68.27
2022-09-28T03:16:20.263Z,67.98
2022-09-28T03:18:48.649Z,68.60
2022-09-28T03:21:40.016Z,68.41
2022-09-28T03:24:06.780Z,69.52
2022-09-28T03:26:33.490Z,68.63
2022-09-28T03:29:00.058Z,68.27
2022-09-28T03:31:26.668Z,68.04
2022-09-28T03:33:53.305Z,67.83
2022-09-28T03:37:30.040Z,67.69
2022-09-28T03:40:21.793Z,68.11
2022-09-28T03:42:48.480Z,67.82
2022-09-28T03:45:15.137Z,67.70
2022-09-28T03:47:48.976Z,67.65
2022-09-28T03:50:15.988Z,67.73
2022-09-28T03:52:42.941Z,67.63
2022-09-28T03:55:10.118Z,67.50
2022-09-28T03:57:37.253Z,67.64
2022-09-28T04:00:05.398Z,67.37
2022-09-28T04:02:32.079Z,67.39
2022-09-28T04:04:58.656Z,67.34
2022-09-28T04:07:27.930Z,67.38
2022-09-28T04:09:57.565Z,67.32
2022-09-28T04:12:24.096Z,67.39
2022-09-28T04:14:50.969Z,67.69
2022-09-28T04:17:17.519Z,67.58
2022-09-28T04:19:44.085Z,67.60
2022-09-28T04:22:10.670Z,67.79
2022-09-28T04:24:37.257Z,67.66
2022-09-28T04:27:22.433Z,67.86
2022-09-28T04:29:48.993Z,68.15
2022-09-28T04:32:15.566Z,67.74
2022-09-28T04:34:44.394Z,67.99
2022-09-28T04:37:11.389Z,68.10
2022-09-28T04:39:37.982Z,67.85
2022-09-28T04:42:04.644Z,68.05
2022-09-28T04:44:31.567Z,68.24
2022-09-28T04:47:01.648Z,69.07
2022-09-28T04:49:30.880Z,68.85
2022-09-28T08:19:21.003Z,54.32
2022-09-28T08:21:47.852Z,55.26
2022-09-28T08:24:54.881Z,55.35
2022-09-28T08:27:21.725Z,55.75
2022-09-28T08:29:48.469Z,55.78
2022-09-28T08:32:19.824Z,54.95
2022-09-28T08:34:50.897Z,55.55
2022-09-28T08:37:17.665Z,55.64
2022-09-28T08:46:47.930Z,56.73
2022-09-28T08:49:39.888Z,56.41
2022-09-28T08:52:19.362Z,55.26
2022-09-28T08:55:04.560Z,55.08
2022-09-28T08:57:41.685Z,53.48
2022-09-28T09:00:21.071Z,54.35
2022-09-28T09:02:48.823Z,54.59
2022-09-28T09:05:40.940Z,53.39
2022-09-28T09:08:41.562Z,53.76
2022-09-28T09:11:28.016Z,52.79
2022-09-28T09:14:36.045Z,54.27
2022-09-28T09:17:40.351Z,54.60
2022-09-28T09:20:36.798Z,52.66
2022-09-28T09:26:28.742Z,53.49
2022-09-28T09:35:19.771Z,53.48
2022-09-28T09:38:01.003Z,54.99
2022-09-28T09:40:50.364Z,53.00
2022-09-28T12:23:08.335Z,50.74
2022-09-28T12:30:57.764Z,51.37
2022-09-28T12:33:28.541Z,50.45
2022-09-28T12:36:35.860Z,52.29
2022-09-28T12:39:27.183Z,51.81
2022-09-28T12:42:51.484Z,51.98
2022-09-28T12:45:53.112Z,52.10
2022-09-28T12:48:36.388Z,51.55
2022-09-28T12:51:15.940Z,50.75
2022-09-28T13:43:31.633Z,50.62
2022-09-28T13:46:07.716Z,49.41
2022-09-28T13:49:09.212Z,49.43
2022-09-28T13:52:15.123Z,49.31
2022-09-28T13:55:37.100Z,49.07
2022-09-28T13:58:22.434Z,49.87
2022-09-28T14:00:56.942Z,49.05
2022-09-28T14:03:28.278Z,48.72
2022-09-28T14:06:31.835Z,49.53
2022-09-28T14:09:13.715Z,49.34
2022-09-28T14:11:56.349Z,48.57
2022-09-28T14:53:20.711Z,50.98
2022-09-28T15:09:05.030Z,50.20
2022-09-28T15:11:32.420Z,50.35
2022-09-28T15:14:25.440Z,50.65
2022-09-28T15:28:22.659Z,51.14
2022-09-28T16:07:00.852Z,52.02
2022-09-28T16:10:00.075Z,51.97
2022-09-28T16:12:59.318Z,51.92
2022-09-28T16:15:37.378Z,52.35
2022-09-28T16:18:22.564Z,52.35
2022-09-28T16:20:54.351Z,53.02
2022-09-28T16:23:25.212Z,52.76
2022-09-28T16:26:07.018Z,53.28
2022-09-28T16:28:34.618Z,53.01
2022-09-28T16:31:13.082Z,52.23
2022-09-28T17:55:22.685Z,56.77
2022-09-28T17:57:49.821Z,57.51
2022-09-28T18:00:17.744Z,57.94
2022-09-28T18:02:45.055Z,60.58
2022-09-28T18:05:14.774Z,61.44
2022-09-28T18:07:47.583Z,62.35
2022-09-28T18:10:21.658Z,62.32
2022-09-28T18:12:49.512Z,62.70
2022-09-28T18:15:17.839Z,62.88
2022-09-28T18:17:45.053Z,63.20
2022-09-28T18:20:13.143Z,64.39
2022-09-28T18:22:39.813Z,66.62
2022-09-28T18:25:07.165Z,65.39
2022-09-28T18:27:34.964Z,65.78
2022-09-28T18:30:02.093Z,65.73
2022-09-28T18:32:28.644Z,65.79
2022-09-28T18:34:55.257Z,66.56
2022-09-28T18:37:21.840Z,66.53
2022-09-28T18:39:48.373Z,66.64
2022-09-28T18:42:14.971Z,66.88
2022-09-28T18:44:41.546Z,66.94
2022-09-28T18:47:08.088Z,67.80
2022-09-28T18:49:34.709Z,67.60
2022-09-28T18:52:01.576Z,67.67
2022-09-28T18:54:28.245Z,67.73
2022-09-28T18:56:57.261Z,67.64
2022-09-28T18:59:24.032Z,67.98
2022-09-28T19:01:51.754Z,68.14
2022-09-28T19:04:20.478Z,68.37
2022-09-28T19:06:51.699Z,68.56
2022-09-28T19:09:20.451Z,69.40
2022-09-28T19:11:47.912Z,69.47
2022-09-28T19:14:17.851Z,69.82
2022-09-28T19:16:45.608Z,70.21
2022-09-28T19:19:14.141Z,70.24
2022-09-28T19:21:43.294Z,70.34
2022-09-28T19:24:14.524Z,70.28
2022-09-28T19:26:41.671Z,69.76
2022-09-28T19:29:10.118Z,69.92
2022-09-28T19:31:36.989Z,70.12
2022-09-28T19:34:04.308Z,70.13
2022-09-28T19:36:34.015Z,70.18
2022-09-28T19:39:03.457Z,70.30
2022-09-28T19:41:43.358Z,70.19
2022-09-28T19:44:10.504Z,70.18
2022-09-28T19:46:40.405Z,70.36
2022-09-28T19:49:12.891Z,70.15
2022-09-28T19:52:01.725Z,70.13
2022-09-28T19:57:09.628Z,70.89
2022-09-28T19:59:37.580Z,70.88
2022-09-28T20:02:06.766Z,71.29
2022-09-28T20:04:33.416Z,71.25
2022-09-28T20:06:59.993Z,71.01
2022-09-28T20:09:26.569Z,71.23
2022-09-28T20:11:53.291Z,71.26
2022-09-28T20:14:21.466Z,70.89
2022-09-28T20:16:50.101Z,71.23
2022-09-28T20:19:19.021Z,72.08
2022-09-28T20:21:45.768Z,72.13
2022-09-28T20:24:12.377Z,72.32
2022-09-28T20:26:39.295Z,72.19
2022-09-28T20:29:07.355Z,72.53
2022-09-28T20:31:38.590Z,72.04
2022-09-28T20:34:14.413Z,72.02
2022-09-28T20:36:44.648Z,71.89
2022-09-28T20:39:11.659Z,71.67
2022-09-28T20:41:38.414Z,71.80
2022-09-28T20:44:06.674Z,71.45
2022-09-28T20:46:37.068Z,71.33
2022-09-28T20:49:40.789Z,71.30
2022-09-28T20:52:29.140Z,71.21
2022-09-28T20:54:55.746Z,71.31
2022-09-28T20:57:22.301Z,71.01
2022-09-28T20:59:54.338Z,71.04
2022-09-28T21:02:22.342Z,70.78
2022-09-28T21:04:48.929Z,70.79
2022-09-28T21:07:15.460Z,71.18
2022-09-28T21:09:45.068Z,71.10
2022-09-28T21:12:12.737Z,71.26
2022-09-28T21:14:39.281Z,71.20
2022-09-28T21:17:05.820Z,71.19
2022-09-28T21:19:32.424Z,70.96
2022-09-28T21:22:20.747Z,71.05
2022-09-28T21:24:47.289Z,71.19
2022-09-28T21:27:13.841Z,71.26
2022-09-28T21:29:40.389Z,71.01
2022-09-28T21:32:08.180Z,70.84
2022-09-28T21:34:35.998Z,72.05
2022-09-28T21:37:02.557Z,71.42
2022-09-28T21:42:46.010Z,71.63
2022-09-28T21:45:12.631Z,71.71
2022-09-28T21:47:41.353Z,71.98
2022-09-28T21:50:08.312Z,72.21
2022-09-28T21:52:34.935Z,71.70
2022-09-28T21:55:01.517Z,71.75
2022-09-28T21:57:38.062Z,72.33
2022-09-28T22:00:05.002Z,72.70
2022-09-28T22:02:33.739Z,72.51
2022-09-28T22:05:00.292Z,73.76
2022-09-28T22:07:26.867Z,74.00
2022-09-28T22:09:53.723Z,73.33
2022-09-28T22:12:42.336Z,73.99
2022-09-28T22:18:20.125Z,73.69
2022-09-28T22:20:46.729Z,73.68
2022-09-28T22:23:13.334Z,73.08
2022-09-28T22:25:39.883Z,73.35
2022-09-28T22:28:06.426Z,74.04
2022-09-28T22:30:34.894Z,73.68
2022-09-28T22:33:20.010Z,74.01
2022-09-28T22:35:49.086Z,73.72
2022-09-28T22:38:15.851Z,74.16
2022-09-28T22:40:56.110Z,73.68
2022-09-28T22:43:23.950Z,73.71
2022-09-28T22:46:00.093Z,73.52
2022-09-28T22:52:03.484Z,73.05
2022-09-28T22:54:30.296Z,72.96
2022-09-28T22:56:56.845Z,73.33
2022-09-28T22:59:23.429Z,73.07
2022-09-28T23:01:50.008Z,72.40
2022-09-28T23:04:16.628Z,72.67
2022-09-28T23:07:01.528Z,73.63
2022-09-28T23:09:28.100Z,74.55
2022-09-28T23:11:54.648Z,74.44
2022-09-28T23:14:22.744Z,74.16
2022-09-28T23:16:49.281Z,74.18
2022-09-28T23:19:16.946Z,73.95
2022-09-28T23:25:52.909Z,73.03
2022-09-28T23:28:21.757Z,72.64
2022-09-28T23:30:48.681Z,73.59
2022-09-28T23:33:16.892Z,73.31
2022-09-28T23:35:44.056Z,73.07
2022-09-28T23:38:16.681Z,73.05
2022-09-28T23:40:44.552Z,73.03
2022-09-28T23:43:11.381Z,72.91
2022-09-28T23:45:37.933Z,73.74
2022-09-28T23:48:04.761Z,74.11
2022-09-28T23:50:31.319Z,74.47
2022-09-28T23:52:57.937Z,74.12
2022-09-28T23:55:46.286Z,74.10
2022-09-28T23:58:12.929Z,73.92
